createdAt,value
2018-08-20T00:01:33.541Z,6.47
2018-08-20T00:04:02.924Z,7.37
2018-08-20T00:06:42.863Z,7.40
2018-08-20T00:09:11.122Z,7.20
2018-08-20T00:11:39.376Z,7.50
2018-08-20T00:14:07.630Z,7.33
2018-08-20T00:16:35.886Z,7.90
2018-08-20T00:19:04.128Z,7.43
2018-08-20T00:21:32.383Z,8.60
2018-08-20T00:24:00.646Z,8.20
2018-08-20T00:26:29.276Z,7.97
2018-08-20T00:28:57.537Z,7.40
2018-08-20T00:31:25.790Z,7.40
2018-08-20T00:33:54.039Z,6.80
2018-08-20T00:36:22.299Z,6.83
2018-08-20T00:38:50.541Z,7.20
2018-08-20T00:41:18.803Z,7.17
2018-08-20T00:43:47.077Z,6.97
2018-08-20T00:46:15.342Z,7.83
2018-08-20T00:48:43.644Z,7.00
2018-08-20T00:51:11.914Z,7.90
2018-08-20T00:53:40.154Z,7.13
2018-08-20T00:56:08.412Z,6.80
2018-08-20T00:58:36.689Z,7.03
2018-08-20T01:01:05.125Z,7.33
2018-08-20T01:03:33.493Z,7.40
2018-08-20T01:06:01.747Z,7.23
2018-08-20T01:08:29.993Z,6.83
2018-08-20T01:10:58.374Z,6.93
2018-08-20T01:13:33.266Z,7.30
2018-08-20T01:16:01.502Z,7.10
2018-08-20T01:18:29.993Z,7.53
2018-08-20T01:20:58.238Z,7.30
2018-08-20T01:23:26.543Z,8.23
2018-08-20T01:25:54.795Z,6.70
2018-08-20T01:28:23.067Z,7.30
2018-08-20T01:30:51.313Z,8.30
2018-08-20T01:33:19.611Z,7.27
2018-08-20T01:35:47.875Z,7.33
2018-08-20T01:38:16.142Z,7.30
2018-08-20T01:40:44.422Z,7.50
2018-08-20T01:43:12.685Z,8.60
2018-08-20T01:45:40.936Z,7.80
2018-08-20T01:48:09.314Z,7.47
2018-08-20T01:50:37.574Z,9.53
2018-08-20T01:53:05.843Z,7.50
2018-08-20T01:55:34.093Z,7.23
2018-08-20T01:58:02.356Z,7.70
2018-08-20T02:00:30.614Z,6.90
2018-08-20T02:03:03.382Z,7.70
2018-08-20T02:05:31.762Z,8.70
2018-08-20T02:08:00.266Z,7.80
2018-08-20T02:10:28.501Z,7.63
2018-08-20T02:12:56.786Z,8.03
2018-08-20T02:15:25.333Z,8.00
2018-08-20T02:17:53.789Z,7.43
2018-08-20T02:20:22.047Z,8.27
2018-08-20T02:22:50.334Z,7.70
2018-08-20T02:25:18.594Z,7.83
2018-08-20T02:27:46.875Z,8.33
2018-08-20T02:30:15.142Z,8.33
2018-08-20T02:32:43.409Z,8.60
2018-08-20T02:35:11.657Z,8.30
2018-08-20T02:37:47.295Z,8.70
2018-08-20T02:40:16.759Z,8.50
2018-08-20T02:42:45.070Z,8.43
2018-08-20T02:45:15.440Z,7.90
2018-08-20T02:47:44.235Z,8.67
2018-08-20T02:50:13.242Z,8.57
2018-08-20T02:52:42.263Z,8.77
2018-08-20T02:55:10.538Z,8.40
2018-08-20T02:57:39.135Z,9.17
2018-08-20T03:00:10.185Z,9.33
2018-08-20T03:02:38.469Z,8.60
2018-08-20T03:05:07.101Z,8.67
2018-08-20T03:07:35.350Z,8.93
2018-08-20T03:10:04.154Z,9.50
2018-08-20T03:12:32.403Z,8.87
2018-08-20T03:15:00.673Z,9.37
2018-08-20T03:17:28.989Z,8.63
2018-08-20T03:19:57.222Z,8.37
2018-08-20T03:22:25.491Z,8.97
2018-08-20T03:24:53.758Z,9.47
2018-08-20T03:27:22.018Z,9.30
2018-08-20T03:29:50.272Z,9.87
2018-08-20T03:32:18.550Z,9.37
2018-08-20T03:34:46.806Z,8.97
2018-08-20T03:37:15.078Z,8.67
2018-08-20T03:39:43.340Z,9.17
2018-08-20T03:42:11.624Z,8.70
2018-08-20T03:44:39.906Z,9.10
2018-08-20T03:47:08.158Z,9.13
2018-08-20T03:49:36.429Z,8.90
2018-08-20T03:52:04.694Z,9.07
2018-08-20T03:54:32.978Z,11.80
2018-08-20T03:57:01.243Z,9.27
2018-08-20T03:59:33.607Z,8.93
2018-08-20T04:02:03.363Z,9.60
2018-08-20T04:04:31.831Z,9.47
2018-08-20T04:07:01.663Z,10.60
2018-08-20T04:09:31.000Z,10.13
2018-08-20T04:12:00.074Z,10.00
2018-08-20T04:14:28.370Z,10.37
2018-08-20T04:16:56.862Z,10.83
2018-08-20T04:19:25.127Z,10.20
2018-08-20T04:21:53.394Z,10.10
2018-08-20T04:24:21.696Z,10.47
2018-08-20T04:26:50.586Z,9.90
2018-08-20T04:29:19.223Z,10.23
2018-08-20T04:31:47.627Z,10.80
2018-08-20T04:34:15.926Z,10.03
2018-08-20T04:36:44.183Z,10.83
2018-08-20T04:39:12.461Z,12.93
2018-08-20T04:41:40.737Z,10.07
2018-08-20T04:44:09.447Z,10.73
2018-08-20T04:46:37.705Z,10.53
2018-08-20T04:49:06.029Z,9.73
2018-08-20T04:51:34.359Z,10.00
2018-08-20T04:54:02.628Z,10.70
2018-08-20T04:56:30.906Z,10.63
2018-08-20T04:58:59.168Z,13.97
2018-08-20T05:01:27.493Z,12.53
2018-08-20T05:03:55.798Z,10.47
2018-08-20T05:06:24.055Z,12.37
2018-08-20T05:08:52.340Z,9.97
2018-08-20T05:11:20.599Z,9.37
2018-08-20T05:13:48.855Z,10.50
2018-08-20T05:16:17.146Z,11.63
2018-08-20T05:18:45.423Z,10.70
2018-08-20T05:21:13.709Z,11.63
2018-08-20T05:23:41.968Z,12.90
2018-08-20T05:26:10.279Z,12.53
2018-08-20T05:28:38.544Z,10.20
2018-08-20T05:31:06.840Z,11.73
2018-08-20T05:33:35.110Z,9.83
2018-08-20T05:36:03.410Z,10.13
2018-08-20T05:38:31.686Z,10.50
2018-08-20T05:40:59.995Z,9.37
2018-08-20T05:43:28.271Z,10.10
2018-08-20T05:45:56.576Z,10.73
2018-08-20T05:48:24.816Z,9.43
2018-08-20T05:50:53.335Z,10.33
2018-08-20T05:53:21.679Z,9.60
2018-08-20T05:55:49.967Z,9.40
2018-08-20T05:58:18.219Z,8.40
2018-08-20T06:00:46.963Z,8.60
2018-08-20T06:03:16.147Z,9.40
2018-08-20T06:06:03.258Z,9.73
2018-08-20T06:08:31.543Z,9.50
2018-08-20T06:10:59.837Z,7.27
2018-08-20T06:13:28.146Z,7.67
2018-08-20T06:15:56.438Z,9.20
2018-08-20T06:18:24.706Z,10.60
2018-08-20T06:20:53.194Z,9.17
2018-08-20T06:23:21.564Z,8.10
2018-08-20T06:25:49.895Z,8.93
2018-08-20T06:28:18.248Z,9.50
2018-08-20T06:30:46.506Z,8.73
2018-08-20T06:33:14.768Z,8.57
2018-08-20T06:35:43.037Z,7.63
2018-08-20T06:38:11.384Z,9.80
2018-08-20T06:40:39.626Z,8.87
2018-08-20T06:43:07.911Z,9.37
2018-08-20T06:45:36.203Z,8.70
2018-08-20T06:48:04.719Z,8.47
2018-08-20T06:50:33.006Z,8.40
2018-08-20T06:53:01.314Z,8.73
2018-08-20T06:55:29.675Z,7.60
2018-08-20T06:57:58.167Z,6.90
2018-08-20T07:00:26.430Z,8.87
2018-08-20T07:02:54.702Z,7.33
2018-08-20T07:05:22.962Z,8.00
2018-08-20T07:07:51.276Z,8.90
2018-08-20T07:10:19.539Z,8.47
2018-08-20T07:12:47.794Z,8.57
2018-08-20T07:15:16.349Z,8.77
2018-08-20T07:17:44.755Z,6.80
2018-08-20T07:20:14.523Z,7.00
2018-08-20T07:22:42.920Z,9.83
2018-08-20T07:25:11.267Z,7.93
2018-08-20T07:27:39.563Z,9.90
2018-08-20T07:30:10.855Z,7.10
2018-08-20T07:32:39.262Z,7.40
2018-08-20T07:35:07.654Z,9.73
2018-08-20T07:37:35.925Z,7.05
2018-08-20T07:40:05.728Z,6.37
2018-08-20T07:42:34.115Z,7.12
2018-08-20T07:45:02.310Z,5.67
2018-08-20T07:47:30.624Z,6.08
2018-08-20T07:49:58.915Z,6.20
2018-08-20T07:52:27.312Z,6.28
2018-08-20T07:54:55.624Z,6.67
2018-08-20T07:57:24.029Z,6.37
2018-08-20T07:59:52.384Z,5.97
2018-08-20T08:02:20.673Z,6.35
2018-08-20T08:04:49.078Z,5.92
2018-08-20T08:07:17.368Z,7.72
2018-08-20T08:09:45.635Z,6.15
2018-08-20T08:12:14.520Z,7.60
2018-08-20T08:14:43.355Z,5.50
2018-08-20T08:17:12.989Z,5.37
2018-08-20T08:19:42.435Z,8.60
2018-08-20T08:22:10.896Z,6.08
2018-08-20T08:24:39.166Z,7.53
2018-08-20T08:27:07.618Z,5.92
2018-08-20T08:29:37.009Z,5.95
2018-08-20T08:32:08.096Z,5.90
2018-08-20T08:34:41.738Z,6.53
2018-08-20T08:37:17.552Z,6.47
2018-08-20T08:39:48.468Z,6.08
2018-08-20T08:42:18.455Z,6.65
2018-08-20T08:44:47.893Z,6.15
2018-08-20T08:47:16.497Z,7.75
2018-08-20T08:49:44.981Z,6.17
2018-08-20T08:52:13.747Z,5.90
2018-08-20T08:54:42.111Z,8.98
2018-08-20T08:57:11.042Z,8.13
2018-08-20T08:59:39.634Z,8.60
2018-08-20T09:02:09.750Z,7.78
2018-08-20T09:04:38.447Z,8.90
2018-08-20T09:07:08.649Z,6.75
2018-08-20T09:09:38.838Z,6.83
2018-08-20T09:12:09.509Z,6.90
2018-08-20T09:14:40.613Z,6.53
2018-08-20T09:17:13.530Z,7.78
2018-08-20T09:19:43.731Z,7.08
2018-08-20T09:22:19.421Z,6.65
2018-08-20T09:24:54.780Z,7.47
2018-08-20T09:27:27.695Z,8.38
2018-08-20T09:30:01.464Z,6.50
2018-08-20T09:32:35.393Z,7.00
2018-08-20T09:35:07.310Z,6.75
2018-08-20T09:37:42.963Z,9.30
2018-08-20T09:40:13.644Z,6.53
2018-08-20T09:42:43.911Z,6.67
2018-08-20T09:45:16.721Z,6.87
2018-08-20T09:47:49.384Z,7.62
2018-08-20T09:50:22.708Z,7.15
2018-08-20T09:52:59.161Z,9.33
2018-08-20T09:55:30.573Z,6.80
2018-08-20T09:58:02.347Z,7.92
2018-08-20T10:00:40.018Z,8.83
2018-08-20T10:03:16.018Z,7.17
2018-08-20T10:05:47.875Z,7.40
2018-08-20T10:08:21.149Z,7.42
2018-08-20T10:10:51.731Z,8.25
2018-08-20T10:13:22.656Z,8.38
2018-08-20T10:15:54.273Z,8.80
2018-08-20T10:18:23.742Z,6.50
2018-08-20T10:20:55.293Z,7.35
2018-08-20T10:23:23.857Z,7.35
2018-08-20T10:25:52.940Z,7.10
2018-08-20T10:28:23.815Z,7.72
2018-08-20T10:30:52.295Z,7.20
2018-08-20T10:33:21.125Z,7.20
2018-08-20T10:35:50.643Z,6.75
2018-08-20T10:38:20.105Z,7.47
2018-08-20T10:40:49.970Z,6.78
2018-08-20T10:43:20.555Z,6.60
2018-08-20T10:45:54.888Z,6.35
2018-08-20T10:48:24.394Z,7.00
2018-08-20T10:50:52.707Z,6.75
2018-08-20T10:53:21.501Z,6.85
2018-08-20T10:55:50.094Z,9.20
2018-08-20T10:58:18.522Z,6.25
2018-08-20T11:00:46.982Z,8.23
2018-08-20T11:03:15.446Z,6.70
2018-08-20T11:05:43.896Z,9.03
2018-08-20T11:08:12.458Z,6.33
2018-08-20T11:10:41.842Z,6.08
2018-08-20T11:13:10.300Z,7.90
2018-08-20T11:15:38.770Z,6.95
2018-08-20T11:18:07.353Z,6.53
2018-08-20T11:20:36.030Z,6.20
2018-08-20T11:23:04.582Z,9.83
2018-08-20T11:25:33.035Z,7.22
2018-08-20T11:28:01.430Z,5.92
2018-08-20T11:30:30.043Z,5.17
2018-08-20T11:32:58.450Z,5.53
2018-08-20T11:35:26.980Z,6.75
2018-08-20T11:37:55.513Z,9.43
2018-08-20T11:40:24.218Z,7.33
2018-08-20T11:42:52.674Z,8.73
2018-08-20T11:45:21.096Z,5.87
2018-08-20T11:47:49.453Z,6.17
2018-08-20T11:50:17.951Z,6.97
2018-08-20T11:52:46.297Z,8.63
2018-08-20T11:55:14.642Z,6.78
2018-08-20T11:57:43.154Z,6.08
2018-08-20T12:00:11.833Z,7.10
2018-08-20T12:02:40.715Z,6.12
2018-08-20T12:05:09.989Z,6.72
2018-08-20T12:07:38.482Z,7.78
2018-08-20T12:12:57.463Z,7.85
2018-08-20T12:15:26.053Z,8.83
2018-08-20T12:17:54.544Z,6.22
2018-08-20T12:20:22.941Z,6.65
2018-08-20T12:22:51.656Z,8.38
2018-08-20T12:25:20.123Z,6.15
2018-08-20T12:27:48.602Z,5.75
2018-08-20T12:30:17.060Z,6.80
2018-08-20T12:32:45.490Z,6.15
2018-08-20T12:35:13.854Z,6.12
2018-08-20T12:37:42.161Z,7.37
2018-08-20T12:40:10.620Z,6.92
2018-08-20T12:42:39.076Z,7.10
2018-08-20T12:45:08.210Z,8.13
2018-08-20T12:47:37.143Z,8.43
2018-08-20T12:50:06.115Z,6.53
2018-08-20T12:52:34.481Z,5.78
2018-08-20T12:55:03.082Z,9.25
2018-08-20T12:57:31.946Z,8.63
2018-08-20T13:00:00.234Z,9.28
2018-08-20T13:02:29.086Z,5.97
2018-08-20T13:04:57.457Z,5.42
2018-08-20T13:07:26.037Z,8.33
2018-08-20T13:09:54.351Z,7.70
2018-08-20T13:12:22.622Z,6.47
2018-08-20T13:14:50.903Z,5.92
2018-08-20T13:17:19.166Z,6.10
2018-08-20T13:19:47.438Z,6.33
2018-08-20T13:22:15.703Z,7.28
2018-08-20T13:24:43.969Z,6.17
2018-08-20T13:27:12.571Z,7.55
2018-08-20T13:29:40.860Z,6.42
2018-08-20T13:32:09.150Z,6.58
2018-08-20T13:34:37.410Z,7.30
2018-08-20T13:37:06.338Z,6.78
2018-08-20T13:39:34.890Z,6.75
2018-08-20T13:42:03.212Z,6.80
2018-08-20T13:44:33.615Z,6.22
2018-08-20T13:47:01.868Z,6.20
2018-08-20T13:49:30.421Z,7.75
2018-08-20T13:51:58.763Z,7.22
2018-08-20T13:54:27.061Z,6.17
2018-08-20T13:56:55.338Z,6.15
2018-08-20T13:59:23.595Z,6.47
2018-08-20T14:01:51.903Z,5.58
2018-08-20T14:04:20.192Z,5.12
2018-08-20T14:06:48.735Z,6.25
2018-08-20T14:09:17.052Z,6.58
2018-08-20T14:11:45.342Z,5.17
2018-08-20T14:14:13.610Z,6.45
2018-08-20T14:16:41.914Z,4.58
2018-08-20T14:19:10.190Z,4.53
2018-08-20T14:21:38.503Z,6.15
2018-08-20T14:24:07.174Z,5.85
2018-08-20T14:26:35.491Z,5.50
2018-08-20T14:29:03.799Z,7.83
2018-08-20T14:31:32.159Z,7.30
2018-08-20T14:34:00.456Z,6.55
2018-08-20T14:36:28.814Z,6.10
2018-08-20T14:38:57.138Z,5.20
2018-08-20T14:41:25.406Z,6.40
2018-08-20T14:43:53.668Z,5.28
2018-08-20T14:46:23.155Z,5.03
2018-08-20T14:48:52.657Z,6.45
2018-08-20T14:51:21.048Z,5.42
2018-08-20T14:53:49.318Z,6.47
2018-08-20T14:56:17.601Z,5.58
2018-08-20T14:58:45.906Z,6.90
2018-08-20T15:01:14.216Z,4.95
2018-08-20T15:03:42.666Z,4.87
2018-08-20T15:06:10.988Z,5.80
2018-08-20T15:08:40.101Z,4.47
2018-08-20T15:11:08.706Z,6.65
2018-08-20T15:13:36.992Z,6.12
2018-08-20T15:16:05.347Z,6.70
2018-08-20T15:18:33.567Z,4.55
2018-08-20T15:21:02.022Z,5.65
2018-08-20T15:23:30.708Z,3.90
2018-08-20T15:25:59.031Z,4.42
2018-08-20T15:28:27.314Z,4.85
2018-08-20T15:30:55.587Z,6.45
2018-08-20T15:33:23.864Z,4.20
2018-08-20T15:35:52.110Z,5.55
2018-08-20T15:38:20.551Z,4.37
2018-08-20T15:40:48.873Z,5.47
2018-08-20T15:43:17.231Z,6.15
2018-08-20T15:45:45.515Z,7.67
2018-08-20T15:48:13.770Z,4.47
2018-08-20T15:50:42.133Z,5.33
2018-08-20T15:53:10.424Z,4.47
2018-08-20T15:55:38.787Z,4.28
2018-08-20T15:58:07.219Z,8.23
2018-08-20T16:00:35.485Z,5.30
2018-08-20T16:03:03.895Z,7.17
2018-08-20T16:05:32.167Z,14.43
2018-08-20T16:08:00.540Z,6.20
2018-08-20T16:10:28.835Z,6.47
2018-08-20T16:12:57.097Z,6.95
2018-08-20T16:15:25.383Z,5.37
2018-08-20T16:18:00.310Z,9.23
2018-08-20T16:20:28.606Z,7.17
2018-08-20T16:22:56.922Z,8.53
2018-08-20T16:25:25.202Z,4.72
2018-08-20T16:27:54.002Z,7.12
2018-08-20T16:30:22.291Z,6.55
2018-08-20T16:32:50.601Z,6.35
2018-08-20T16:35:18.878Z,6.95
2018-08-20T16:37:47.158Z,5.50
2018-08-20T16:40:15.473Z,5.90
2018-08-20T16:42:43.812Z,7.27
2018-08-20T16:45:12.102Z,7.85
2018-08-20T16:47:40.635Z,6.50
2018-08-20T16:50:10.783Z,9.17
2018-08-20T16:52:39.051Z,6.87
2018-08-20T16:55:07.966Z,5.78
2018-08-20T16:57:36.990Z,6.43
2018-08-20T17:00:07.933Z,7.45
2018-08-20T17:02:41.013Z,8.75
2018-08-20T17:05:11.173Z,7.62
2018-08-20T17:07:40.264Z,8.07
2018-08-20T17:10:10.971Z,7.58
2018-08-20T17:12:40.275Z,10.30
2018-08-20T17:15:10.218Z,8.07
2018-08-20T17:17:39.764Z,6.53
2018-08-20T17:20:10.036Z,7.77
2018-08-20T17:22:39.391Z,9.13
2018-08-20T17:25:08.697Z,7.80
2018-08-20T17:27:37.860Z,7.40
2018-08-20T17:30:08.468Z,5.90
2018-08-20T17:32:37.303Z,5.80
2018-08-20T17:35:08.301Z,6.77
2018-08-20T17:37:37.540Z,7.62
2018-08-20T17:40:09.170Z,5.97
2018-08-20T17:42:38.238Z,5.30
2018-08-20T17:45:08.805Z,5.97
2018-08-20T17:47:39.921Z,6.47
2018-08-20T17:50:24.022Z,7.00
2018-08-20T17:52:52.896Z,6.00
2018-08-20T17:55:22.139Z,5.57
2018-08-20T17:57:51.322Z,5.43
2018-08-20T18:00:30.180Z,5.97
2018-08-20T18:02:58.495Z,7.57
2018-08-20T18:05:27.330Z,5.10
2018-08-20T18:07:55.725Z,4.87
2018-08-20T18:10:24.687Z,6.37
2018-08-20T18:12:53.520Z,6.00
2018-08-20T18:15:24.473Z,6.13
2018-08-20T18:17:53.556Z,4.97
2018-08-20T18:20:21.842Z,4.50
2018-08-20T18:22:50.257Z,4.93
2018-08-20T18:25:18.614Z,4.77
2018-08-20T18:27:47.227Z,6.60
2018-08-20T18:30:17.687Z,5.37
2018-08-20T18:32:46.489Z,7.53
2018-08-20T18:35:18.770Z,5.80
2018-08-20T18:37:51.070Z,6.43
2018-08-20T18:40:20.135Z,9.80
2018-08-20T18:42:48.430Z,5.50
2018-08-20T18:45:17.146Z,10.83
2018-08-20T18:47:45.435Z,9.50
2018-08-20T18:50:14.161Z,7.30
2018-08-20T18:52:42.434Z,7.77
2018-08-20T18:55:12.224Z,6.50
2018-08-20T18:57:41.043Z,6.60
2018-08-20T19:00:13.017Z,6.43
2018-08-20T19:02:48.268Z,6.97
2018-08-20T19:05:17.879Z,7.23
2018-08-20T19:07:46.489Z,6.93
2018-08-20T19:10:20.054Z,5.63
2018-08-20T19:12:48.345Z,6.90
2018-08-20T19:15:40.520Z,6.23
2018-08-20T19:18:13.754Z,6.50
2018-08-20T19:20:43.810Z,7.53
2018-08-20T19:23:12.872Z,7.60
2018-08-20T19:25:43.007Z,6.30
2018-08-20T19:28:24.331Z,8.00
2018-08-20T19:30:54.299Z,7.80
2018-08-20T19:33:23.375Z,9.90
2018-08-20T19:35:53.345Z,5.43
2018-08-20T19:38:22.982Z,5.97
2018-08-20T19:41:14.805Z,6.53
2018-08-20T19:43:48.523Z,6.60
2018-08-20T19:46:27.932Z,5.70
2018-08-20T19:49:01.966Z,6.27
2018-08-20T19:52:28.654Z,6.43
2018-08-20T19:55:02.500Z,6.17
2018-08-20T19:57:32.973Z,5.87
2018-08-20T20:00:01.855Z,9.80
2018-08-20T20:02:30.741Z,6.37
2018-08-20T20:05:04.257Z,6.00
2018-08-20T20:07:34.662Z,6.60
2018-08-20T20:10:10.263Z,7.97
2018-08-20T20:12:44.725Z,6.07
2018-08-20T20:15:13.753Z,7.90
2018-08-20T20:17:42.645Z,6.33
2018-08-20T20:20:11.461Z,6.77
2018-08-20T20:22:40.225Z,7.43
2018-08-20T20:25:09.541Z,7.83
2018-08-20T20:27:38.613Z,6.30
2018-08-20T20:30:07.874Z,7.53
2018-08-20T20:32:36.884Z,6.33
2018-08-20T20:35:07.422Z,8.17
2018-08-20T20:37:36.659Z,6.70
2018-08-20T20:40:05.371Z,8.87
2018-08-20T20:42:33.749Z,7.43
2018-08-20T20:45:02.196Z,6.67
2018-08-20T20:47:30.789Z,6.40
2018-08-20T20:49:59.110Z,6.87
2018-08-20T20:52:27.514Z,7.37
2018-08-20T20:54:55.940Z,8.40
2018-08-20T20:57:24.312Z,7.93
2018-08-20T20:59:52.702Z,7.53
2018-08-20T21:02:21.002Z,7.20
2018-08-20T21:04:49.282Z,9.97
2018-08-20T21:07:22.287Z,8.83
2018-08-20T21:09:50.544Z,7.20
2018-08-20T21:12:19.153Z,9.03
2018-08-20T21:14:47.514Z,8.27
2018-08-20T21:17:15.792Z,8.97
2018-08-20T21:19:44.068Z,10.60
2018-08-20T21:22:12.530Z,9.87
2018-08-20T21:24:40.812Z,7.40
2018-08-20T21:27:13.939Z,7.87
2018-08-20T21:29:42.590Z,7.47
2018-08-20T21:32:10.860Z,8.70
2018-08-20T21:34:41.733Z,8.10
2018-08-20T21:37:10.651Z,7.20
2018-08-20T21:39:39.438Z,7.93
2018-08-20T21:42:07.743Z,8.47
2018-08-20T21:44:36.086Z,6.80
2018-08-20T21:47:27.171Z,11.03
2018-08-20T21:49:55.521Z,11.53
2018-08-20T21:54:57.798Z,8.57
2018-08-20T21:57:26.115Z,10.53
2018-08-20T22:00:03.418Z,9.73
2018-08-20T22:02:32.652Z,8.10
2018-08-20T22:05:00.950Z,8.43
2018-08-20T22:07:29.325Z,8.73
2018-08-20T22:09:57.600Z,8.67
2018-08-20T22:12:25.896Z,8.77
2018-08-20T22:14:54.186Z,8.07
2018-08-20T22:17:27.926Z,9.10
2018-08-20T22:19:56.212Z,10.73
2018-08-20T22:22:26.758Z,7.83
2018-08-20T22:25:00.368Z,7.97
2018-08-20T22:27:29.735Z,9.43
2018-08-20T22:30:01.958Z,8.90
2018-08-20T22:32:30.425Z,11.47
2018-08-20T22:34:58.913Z,8.53
2018-08-20T22:37:27.195Z,8.40
2018-08-20T22:40:00.742Z,8.90
2018-08-20T22:42:41.426Z,11.43
2018-08-20T22:45:10.823Z,10.93
2018-08-20T22:47:39.222Z,11.30
2018-08-20T22:50:07.514Z,12.37
2018-08-20T22:52:35.791Z,12.40
2018-08-20T22:55:04.884Z,10.40
2018-08-20T22:57:33.178Z,12.37
2018-08-20T23:00:03.475Z,11.13
2018-08-20T23:02:31.774Z,12.73
2018-08-20T23:05:01.827Z,10.73
2018-08-20T23:07:30.127Z,11.27
2018-08-20T23:09:58.445Z,10.43
2018-08-20T23:12:32.833Z,12.03
2018-08-20T23:15:01.561Z,9.57
2018-08-20T23:17:29.815Z,14.03
2018-08-20T23:19:58.112Z,10.70
2018-08-20T23:22:26.386Z,9.57
2018-08-20T23:24:57.473Z,11.27
2018-08-20T23:27:44.414Z,10.70
2018-08-20T23:30:14.126Z,9.00
2018-08-20T23:32:42.415Z,10.10
2018-08-20T23:35:10.699Z,10.30
2018-08-20T23:37:38.990Z,10.40
2018-08-20T23:40:07.292Z,11.60
2018-08-20T23:42:35.747Z,10.30
2018-08-20T23:45:04.465Z,11.20
2018-08-20T23:47:32.754Z,10.73
2018-08-20T23:50:01.072Z,10.83
2018-08-20T23:52:29.350Z,11.00
2018-08-20T23:54:57.821Z,10.43
2018-08-20T23:57:26.098Z,12.17
2018-08-20T23:59:54.382Z,13.30
